Time;durP1;ratioP1;P1;durP2;ratioP2;P2;SDS_P1;SDS_P2;PMS_P1;PMS_P2;Temp;Humidity;BMP_temperature;BMP_pressure;BME280_temperature;BME280_humidity;BME280_pressure;Samples;Min_cycle;Max_cycle;Signal;HPM_P1;HPM_P2
2021/10/26 00:01:19;;;;;;;6.23;4.23;;;8.30;99.90;;;;;;5031354;28;20210;-58
2021/10/26 00:03:45;;;;;;;7.67;4.23;;;8.20;99.90;;;;;;5031378;28;20206;-58
2021/10/26 00:06:12;;;;;;;5.40;4.40;;;8.20;99.90;;;;;;5030720;28;20210;-58
2021/10/26 00:08:39;;;;;;;5.87;4.37;;;8.30;99.90;;;;;;5031382;28;20211;-59
2021/10/26 00:11:06;;;;;;;7.50;4.43;;;8.30;99.90;;;;;;5031265;28;20804;-59
2021/10/26 00:13:34;;;;;;;5.30;4.03;;;8.40;99.90;;;;;;5030779;28;20721;-58
2021/10/26 00:16:00;;;;;;;6.60;4.47;;;8.40;99.90;;;;;;5031197;28;20233;-59
2021/10/26 00:18:27;;;;;;;6.13;4.10;;;8.50;99.90;;;;;;5030883;28;20230;-58
2021/10/26 00:20:54;;;;;;;5.63;4.17;;;8.50;99.90;;;;;;5030900;28;20213;-59
2021/10/26 00:23:21;;;;;;;4.87;4.10;;;8.50;99.90;;;;;;5030876;28;20732;-58
2021/10/26 00:25:48;;;;;;;6.60;4.43;;;8.50;99.90;;;;;;5031160;28;20214;-59
2021/10/26 00:28:14;;;;;;;6.73;4.40;;;8.50;99.90;;;;;;5030953;28;20229;-59
2021/10/26 00:30:43;;;;;;;6.50;4.60;;;8.40;99.90;;;;;;5031126;28;20202;-58
2021/10/26 00:33:09;;;;;;;5.10;4.43;;;8.30;99.90;;;;;;5045180;22;20245;-55
2021/10/26 00:35:36;;;;;;;6.00;4.53;;;8.30;99.90;;;;;;5031088;28;20210;-54
2021/10/26 00:38:03;;;;;;;6.53;4.43;;;8.20;99.90;;;;;;5030901;28;20209;-54
2021/10/26 00:40:31;;;;;;;6.57;5.10;;;8.20;99.90;;;;;;5030899;28;20213;-55
2021/10/26 00:42:57;;;;;;;6.90;4.27;;;8.20;99.90;;;;;;5030939;28;20313;-56
2021/10/26 00:45:24;;;;;;;8.00;4.53;;;8.30;99.90;;;;;;5030765;28;20264;-54
2021/10/26 00:47:52;;;;;;;24.40;13.87;;;8.50;99.90;;;;;;5030829;28;20598;-54
2021/10/26 00:50:19;;;;;;;12.07;7.90;;;8.60;99.90;;;;;;5030910;28;20297;-54
2021/10/26 00:52:46;;;;;;;26.73;19.93;;;8.70;99.90;;;;;;5030942;28;20230;-55
2021/10/26 00:55:13;;;;;;;33.77;22.70;;;8.90;99.90;;;;;;5030722;28;20585;-54
2021/10/26 00:57:41;;;;;;;11.57;7.30;;;9.00;99.90;;;;;;5030518;28;20209;-55
2021/10/26 01:00:09;;;;;;;5.57;4.10;;;9.10;99.90;;;;;;5030524;28;20272;-54
2021/10/26 01:02:36;;;;;;;6.30;4.53;;;9.20;99.90;;;;;;5030434;28;20792;-55
2021/10/26 01:05:05;;;;;;;5.60;4.27;;;9.30;99.90;;;;;;5030566;28;20209;-55
2021/10/26 01:07:33;;;;;;;8.47;4.47;;;9.50;99.90;;;;;;5030406;28;20564;-54
2021/10/26 01:10:00;;;;;;;7.17;4.77;;;9.50;99.90;;;;;;5030575;28;20210;-54
2021/10/26 01:12:28;;;;;;;6.80;4.30;;;9.40;99.90;;;;;;5030419;28;20241;-54
2021/10/26 01:14:55;;;;;;;6.37;4.50;;;9.40;99.90;;;;;;5030290;28;20213;-54
2021/10/26 01:17:22;;;;;;;5.70;4.20;;;9.40;99.90;;;;;;5031985;28;20210;-56
2021/10/26 01:19:51;;;;;;;5.93;4.60;;;9.60;99.90;;;;;;5034067;28;20792;-56
2021/10/26 01:22:20;;;;;;;6.03;4.50;;;9.50;99.90;;;;;;5034316;28;20265;-55
2021/10/26 01:24:47;;;;;;;8.03;4.87;;;9.60;99.90;;;;;;5034094;28;20206;-55
2021/10/26 01:27:15;;;;;;;6.27;4.57;;;9.80;99.90;;;;;;5034003;28;20256;-56
2021/10/26 01:29:42;;;;;;;5.87;4.27;;;9.80;99.90;;;;;;5033838;28;20626;-56
2021/10/26 01:32:11;;;;;;;10.30;5.10;;;9.70;99.90;;;;;;5033925;28;20253;-54
2021/10/26 01:34:38;;;;;;;5.47;4.77;;;9.70;99.90;;;;;;5034011;28;20232;-54
2021/10/26 01:37:09;;;;;;;6.40;4.70;;;9.90;99.90;;;;;;5033950;28;20341;-54
2021/10/26 01:39:36;;;;;;;6.63;4.80;;;9.80;99.90;;;;;;5033780;28;20222;-56
2021/10/26 01:42:05;;;;;;;6.80;4.90;;;9.90;99.90;;;;;;5034144;28;20233;-54
2021/10/26 01:44:33;;;;;;;4.93;4.40;;;10.00;99.90;;;;;;5033948;28;20224;-54
2021/10/26 01:46:59;;;;;;;6.80;4.67;;;10.00;99.90;;;;;;5034231;28;20212;-54
2021/10/26 01:49:26;;;;;;;8.70;5.10;;;10.00;99.90;;;;;;5033845;28;20206;-54
2021/10/26 01:51:53;;;;;;;5.80;4.63;;;10.00;99.90;;;;;;5033822;28;20213;-55
2021/10/26 01:54:22;;;;;;;5.33;4.60;;;10.20;99.90;;;;;;5033978;28;20253;-54
2021/10/26 01:56:50;;;;;;;8.27;5.10;;;10.30;99.90;;;;;;5033855;28;20220;-57
2021/10/26 01:59:16;;;;;;;6.33;4.60;;;10.30;99.90;;;;;;5033331;28;20321;-54
2021/10/26 02:01:43;;;;;;;5.87;4.27;;;10.40;99.90;;;;;;5033520;28;20210;-55
2021/10/26 02:04:10;;;;;;;6.60;3.93;;;10.50;99.90;;;;;;5033499;28;20211;-54
2021/10/26 02:06:37;;;;;;;5.23;4.20;;;10.60;99.90;;;;;;5033665;28;20613;-54
2021/10/26 02:09:03;;;;;;;7.87;4.47;;;10.60;99.90;;;;;;5033187;28;20237;-55
2021/10/26 02:11:31;;;;;;;7.93;4.20;;;10.70;99.90;;;;;;5033324;28;20206;-54
2021/10/26 02:13:58;;;;;;;5.90;4.50;;;10.80;99.90;;;;;;5033444;28;20234;-54
2021/10/26 02:16:25;;;;;;;6.87;4.50;;;10.90;99.90;;;;;;5033461;28;20207;-54
2021/10/26 02:18:52;;;;;;;7.97;4.63;;;11.00;99.90;;;;;;5033073;28;20230;-54
2021/10/26 02:21:18;;;;;;;5.97;4.90;;;11.10;99.90;;;;;;5033275;28;20242;-55
2021/10/26 02:23:45;;;;;;;5.60;4.60;;;11.20;99.90;;;;;;5032914;28;20237;-56
2021/10/26 02:26:14;;;;;;;6.63;5.00;;;11.20;99.90;;;;;;5033064;28;20601;-54
2021/10/26 02:28:42;;;;;;;7.27;5.10;;;11.20;99.90;;;;;;5032529;28;20289;-54
2021/10/26 02:31:08;;;;;;;6.37;4.30;;;11.20;99.90;;;;;;5032901;28;20709;-56
2021/10/26 02:33:35;;;;;;;6.00;4.70;;;11.20;99.90;;;;;;5032596;28;20238;-54
2021/10/26 02:36:02;;;;;;;5.63;4.50;;;11.20;99.90;;;;;;5032803;28;20206;-55
2021/10/26 02:38:29;;;;;;;6.30;4.30;;;11.30;99.90;;;;;;5032553;28;20206;-56
2021/10/26 02:40:56;;;;;;;6.80;4.10;;;11.20;99.90;;;;;;5033005;28;20214;-54
2021/10/26 02:43:22;;;;;;;6.53;4.97;;;11.10;99.90;;;;;;5032720;28;20226;-54
2021/10/26 02:45:50;;;;;;;6.93;4.40;;;10.90;99.90;;;;;;5033096;28;20222;-55
2021/10/26 02:48:17;;;;;;;4.70;3.77;;;10.80;99.90;;;;;;5033060;28;20625;-56
2021/10/26 02:50:44;;;;;;;5.73;4.43;;;10.80;99.90;;;;;;5032958;28;20641;-55
2021/10/26 02:53:10;;;;;;;6.30;4.43;;;10.70;99.90;;;;;;5032945;28;20226;-54
2021/10/26 02:55:37;;;;;;;6.33;4.90;;;10.60;99.90;;;;;;5032535;28;20783;-54
2021/10/26 02:58:04;;;;;;;5.23;4.17;;;10.50;99.90;;;;;;5032648;28;20683;-56
2021/10/26 03:00:30;;;;;;;5.33;4.37;;;10.50;99.90;;;;;;5033597;28;20222;-54
2021/10/26 03:02:58;;;;;;;7.10;4.83;;;10.40;99.90;;;;;;5032783;28;20230;-54
2021/10/26 03:05:25;;;;;;;6.20;4.70;;;10.40;99.90;;;;;;5032182;28;20213;-54
2021/10/26 03:07:52;;;;;;;4.90;4.27;;;10.30;99.90;;;;;;5032324;28;20508;-55
2021/10/26 03:10:18;;;;;;;5.00;4.00;;;10.40;99.90;;;;;;5032321;28;20210;-55
2021/10/26 03:12:45;;;;;;;5.40;4.20;;;10.50;99.90;;;;;;5032368;28;20222;-54
2021/10/26 03:15:13;;;;;;;5.23;4.10;;;10.50;99.90;;;;;;5031973;28;20207;-54
2021/10/26 03:17:41;;;;;;;5.77;4.40;;;10.50;99.90;;;;;;5032087;28;20213;-55
2021/10/26 03:20:10;;;;;;;6.57;4.00;;;10.50;99.90;;;;;;5031847;28;20226;-54
2021/10/26 03:22:37;;;;;;;5.23;4.17;;;10.40;99.90;;;;;;5032057;28;20361;-54
2021/10/26 03:25:05;;;;;;;5.60;4.20;;;10.30;99.90;;;;;;5031964;28;20296;-54
2021/10/26 03:27:31;;;;;;;6.83;4.53;;;10.40;99.90;;;;;;5031886;28;20206;-54
2021/10/26 03:29:58;;;;;;;6.13;4.60;;;10.40;99.90;;;;;;5031646;28;20210;-54
2021/10/26 03:32:25;;;;;;;5.80;4.10;;;10.40;99.90;;;;;;5031528;28;20238;-54
2021/10/26 03:34:52;;;;;;;6.70;4.77;;;10.50;99.90;;;;;;5032179;28;20211;-54
2021/10/26 03:37:20;;;;;;;6.70;4.50;;;10.50;99.90;;;;;;5031628;28;20686;-54
2021/10/26 03:39:49;;;;;;;6.60;4.50;;;10.50;99.90;;;;;;5030838;28;20266;-54
2021/10/26 03:42:16;;;;;;;6.20;4.70;;;10.60;99.90;;;;;;5031613;28;20259;-56
2021/10/26 03:44:43;;;;;;;8.57;6.43;;;10.60;99.90;;;;;;5031348;28;20206;-56
2021/10/26 03:47:10;;;;;;;6.53;5.27;;;10.60;99.90;;;;;;5031359;28;20619;-56
2021/10/26 03:49:36;;;;;;;6.87;5.27;;;10.60;99.90;;;;;;5031567;28;20202;-55
2021/10/26 03:52:03;;;;;;;5.83;5.10;;;10.60;99.90;;;;;;5031615;28;20253;-55
2021/10/26 03:54:32;;;;;;;8.97;4.90;;;10.60;99.90;;;;;;5031390;28;20221;-56
2021/10/26 03:56:59;;;;;;;6.07;5.17;;;10.50;99.90;;;;;;5031341;28;20210;-56
2021/10/26 03:59:30;;;;;;;7.33;5.23;;;10.50;99.90;;;;;;5031170;28;20248;-54
2021/10/26 04:01:57;;;;;;;6.10;5.07;;;10.50;99.90;;;;;;5031234;28;20732;-55
2021/10/26 04:04:24;;;;;;;6.50;5.17;;;10.50;99.90;;;;;;5031259;28;20294;-54
2021/10/26 04:06:51;;;;;;;6.70;4.93;;;10.50;99.90;;;;;;5031321;28;20215;-54
2021/10/26 04:09:23;;;;;;;7.60;5.23;;;10.60;99.90;;;;;;5030968;28;20202;-54
2021/10/26 04:11:55;;;;;;;7.57;5.80;;;10.70;99.90;;;;;;5031107;28;20587;-54
2021/10/26 04:14:21;;;;;;;7.07;5.70;;;10.80;99.90;;;;;;5031328;28;20217;-55
2021/10/26 04:16:48;;;;;;;7.40;5.90;;;10.90;99.90;;;;;;5031431;28;20206;-55
2021/10/26 04:19:15;;;;;;;6.23;5.23;;;11.00;99.90;;;;;;5031055;28;20624;-54
2021/10/26 04:21:41;;;;;;;7.80;5.87;;;11.00;99.90;;;;;;5031078;28;20678;-59
2021/10/26 04:24:08;;;;;;;5.97;5.13;;;11.10;99.90;;;;;;5031017;28;20620;-54
2021/10/26 04:26:35;;;;;;;7.10;5.77;;;11.20;99.90;;;;;;5031028;28;20229;-54
2021/10/26 04:29:03;;;;;;;7.83;5.80;;;11.20;99.90;;;;;;5030875;28;20214;-55
2021/10/26 04:31:30;;;;;;;8.47;6.47;;;11.30;99.90;;;;;;5030986;28;20215;-55
2021/10/26 04:33:56;;;;;;;8.20;6.27;;;11.30;99.90;;;;;;5030525;28;20234;-55
2021/10/26 04:36:23;;;;;;;7.03;5.80;;;11.30;99.90;;;;;;5031099;28;20627;-55
2021/10/26 04:38:50;;;;;;;8.07;6.10;;;11.40;99.90;;;;;;5030641;28;20597;-54
2021/10/26 04:41:18;;;;;;;6.53;5.70;;;11.50;99.90;;;;;;5030698;28;20717;-54
2021/10/26 04:43:44;;;;;;;6.97;5.23;;;11.50;99.90;;;;;;5030967;28;20419;-54
2021/10/26 04:46:12;;;;;;;6.83;5.17;;;11.60;99.90;;;;;;5031446;28;20206;-54
2021/10/26 04:48:39;;;;;;;7.00;5.70;;;11.60;99.90;;;;;;5030518;28;20573;-55
2021/10/26 04:51:06;;;;;;;7.73;5.70;;;11.50;99.90;;;;;;5031995;28;20620;-56
2021/10/26 04:53:32;;;;;;;7.83;5.50;;;11.50;99.90;;;;;;5034492;28;20230;-54
2021/10/26 04:56:00;;;;;;;8.47;6.63;;;11.50;99.90;;;;;;5034669;28;20263;-55
2021/10/26 04:58:27;;;;;;;6.33;5.60;;;11.60;99.90;;;;;;5034707;28;20205;-55
2021/10/26 05:00:53;;;;;;;8.83;6.47;;;11.60;99.90;;;;;;5034507;28;20702;-55
2021/10/26 05:03:21;;;;;;;7.30;6.37;;;11.60;99.90;;;;;;5034393;28;20794;-57
2021/10/26 05:05:48;;;;;;;8.30;6.30;;;11.60;99.90;;;;;;5034580;28;20217;-55
2021/10/26 05:08:15;;;;;;;7.83;6.77;;;11.60;99.90;;;;;;5034291;28;20587;-54
2021/10/26 05:10:41;;;;;;;9.20;6.70;;;11.60;99.90;;;;;;5034451;28;20657;-55
2021/10/26 05:13:08;;;;;;;11.17;7.17;;;11.70;99.90;;;;;;5034459;28;20230;-54
2021/10/26 05:15:35;;;;;;;11.63;8.93;;;11.60;99.90;;;;;;5034231;28;20202;-55
2021/10/26 05:18:02;;;;;;;12.57;8.50;;;11.60;99.90;;;;;;5034274;28;20297;-55
2021/10/26 05:20:32;;;;;;;13.13;7.97;;;11.60;99.90;;;;;;5034139;28;20244;-54
2021/10/26 05:22:59;;;;;;;10.43;8.70;;;11.50;99.90;;;;;;5034058;28;20740;-54
2021/10/26 05:25:26;;;;;;;13.00;9.07;;;11.60;99.90;;;;;;5034314;28;20297;-54
2021/10/26 05:27:52;;;;;;;10.00;7.60;;;11.60;99.90;;;;;;5034382;28;20214;-57
2021/10/26 05:30:19;;;;;;;9.67;6.63;;;11.70;99.90;;;;;;5034178;28;20221;-54
2021/10/26 05:32:46;;;;;;;12.80;7.50;;;11.60;99.90;;;;;;5034090;28;20718;-54
2021/10/26 05:35:12;;;;;;;9.10;6.70;;;11.60;99.90;;;;;;5034149;28;20210;-54
2021/10/26 05:37:40;;;;;;;10.80;7.43;;;11.60;99.90;;;;;;5034306;28;20209;-54
2021/10/26 05:40:08;;;;;;;11.93;7.30;;;11.50;99.90;;;;;;5034494;28;20226;-54
2021/10/26 05:42:35;;;;;;;9.27;7.33;;;11.50;99.90;;;;;;5034328;28;20288;-54
2021/10/26 05:45:02;;;;;;;11.20;8.20;;;11.40;99.90;;;;;;5033908;28;20214;-53
2021/10/26 05:47:29;;;;;;;8.77;7.50;;;11.40;99.90;;;;;;5033814;28;20685;-56
2021/10/26 05:49:55;;;;;;;10.40;7.20;;;11.40;99.90;;;;;;5033721;28;20206;-53
2021/10/26 05:52:23;;;;;;;12.90;8.20;;;11.40;99.90;;;;;;5033848;28;20230;-53
2021/10/26 05:54:51;;;;;;;9.40;7.20;;;11.50;99.90;;;;;;5033787;28;20206;-54
2021/10/26 05:57:17;;;;;;;10.27;7.00;;;11.50;99.90;;;;;;5033916;28;20296;-55
2021/10/26 05:59:44;;;;;;;8.93;7.83;;;11.50;99.90;;;;;;5033903;28;20206;-54
2021/10/26 06:02:11;;;;;;;10.77;7.90;;;11.50;99.90;;;;;;5033423;28;20276;-53
2021/10/26 06:04:38;;;;;;;9.13;7.27;;;11.50;99.90;;;;;;5032551;28;20618;-54
2021/10/26 06:07:05;;;;;;;11.20;7.50;;;11.40;99.90;;;;;;5033596;28;20203;-55
2021/10/26 06:09:34;;;;;;;10.20;7.67;;;11.40;99.90;;;;;;5033441;28;20284;-55
2021/10/26 06:12:05;;;;;;;11.20;7.53;;;11.40;99.90;;;;;;5033326;28;20654;-54
2021/10/26 06:14:32;;;;;;;10.90;7.57;;;11.30;99.90;;;;;;5033094;28;20221;-55
2021/10/26 06:17:01;;;;;;;10.67;9.20;;;11.20;99.90;;;;;;5033132;28;20207;-53
2021/10/26 06:19:28;;;;;;;15.00;11.80;;;11.20;99.90;;;;;;5033343;28;20206;-53
2021/10/26 06:21:55;;;;;;;10.67;9.03;;;11.10;99.90;;;;;;5032739;28;20237;-54
2021/10/26 06:24:21;;;;;;;10.70;8.37;;;11.10;99.90;;;;;;5032994;28;20210;-55
2021/10/26 06:26:48;;;;;;;13.50;10.23;;;11.10;99.90;;;;;;5033004;28;20579;-54
2021/10/26 06:29:16;;;;;;;13.77;10.70;;;11.00;99.90;;;;;;5032963;28;20213;-56
2021/10/26 06:31:43;;;;;;;13.67;10.33;;;11.10;99.90;;;;;;5032701;28;20211;-57
2021/10/26 06:34:09;;;;;;;16.53;12.50;;;11.10;99.90;;;;;;5073384;22;20508;-59
2021/10/26 06:36:36;;;;;;;15.57;12.73;;;11.10;99.90;;;;;;5052917;28;20210;-59
2021/10/26 06:39:04;;;;;;;12.80;10.67;;;11.10;99.90;;;;;;5052880;28;20521;-59
2021/10/26 06:41:31;;;;;;;12.30;10.93;;;11.10;99.90;;;;;;5052615;28;20578;-58
2021/10/26 06:43:58;;;;;;;10.83;8.23;;;11.20;99.90;;;;;;5052810;28;20283;-59
2021/10/26 06:46:26;;;;;;;11.47;10.00;;;11.20;99.90;;;;;;5052618;28;20209;-59
2021/10/26 06:48:53;;;;;;;18.50;14.67;;;11.30;99.90;;;;;;5052458;28;20209;-59
2021/10/26 06:51:20;;;;;;;7.87;6.73;;;11.50;99.90;;;;;;5052621;28;20268;-59
2021/10/26 06:53:46;;;;;;;8.60;5.80;;;11.60;99.90;;;;;;5052405;28;20222;-59
2021/10/26 06:56:14;;;;;;;6.83;5.40;;;11.80;99.90;;;;;;5052373;28;20202;-59
2021/10/26 06:58:41;;;;;;;9.47;5.90;;;12.00;99.90;;;;;;5052582;28;20577;-59
2021/10/26 07:01:08;;;;;;;7.63;6.07;;;12.10;99.90;;;;;;5052687;28;20233;-58
2021/10/26 07:03:37;;;;;;;8.13;5.87;;;12.10;99.90;;;;;;5052173;28;20324;-58
2021/10/26 07:06:04;;;;;;;7.40;5.97;;;12.10;99.90;;;;;;5052523;28;20240;-58
2021/10/26 07:08:31;;;;;;;6.47;5.40;;;12.10;99.90;;;;;;5052625;28;20259;-59
2021/10/26 07:10:58;;;;;;;8.20;7.30;;;12.20;99.90;;;;;;5052201;28;20236;-60
2021/10/26 07:13:25;;;;;;;9.20;6.97;;;12.20;99.90;;;;;;5051793;28;20283;-60
2021/10/26 07:15:52;;;;;;;8.30;6.00;;;12.30;99.90;;;;;;5052631;28;20229;-59
2021/10/26 07:18:19;;;;;;;9.00;7.20;;;12.20;99.90;;;;;;5051846;28;20202;-59
2021/10/26 07:20:47;;;;;;;8.60;7.23;;;12.30;99.90;;;;;;5051947;28;20226;-59
2021/10/26 07:23:14;;;;;;;9.47;7.40;;;12.40;99.90;;;;;;5051982;28;20221;-58
2021/10/26 07:25:41;;;;;;;10.07;7.00;;;12.50;99.90;;;;;;5051959;28;20221;-59
2021/10/26 07:28:08;;;;;;;8.73;7.77;;;12.60;99.90;;;;;;5052131;28;20216;-59
2021/10/26 07:30:36;;;;;;;12.60;8.60;;;12.60;99.90;;;;;;5051968;28;20208;-59
2021/10/26 07:33:05;;;;;;;10.50;6.73;;;12.90;99.90;;;;;;5051751;28;20620;-59
2021/10/26 07:35:37;;;;;;;12.37;6.63;;;13.10;99.90;;;;;;5051640;28;20249;-59
2021/10/26 07:38:06;;;;;;;7.33;6.17;;;13.20;99.90;;;;;;5051540;28;20259;-59
2021/10/26 07:40:32;;;;;;;10.80;5.83;;;13.40;99.90;;;;;;5051534;28;20233;-59
2021/10/26 07:42:59;;;;;;;9.70;7.70;;;13.60;99.90;;;;;;5051765;28;20233;-59
2021/10/26 07:45:26;;;;;;;9.30;6.50;;;13.80;99.90;;;;;;5051527;28;20205;-59
2021/10/26 07:47:53;;;;;;;8.17;6.63;;;13.90;99.90;;;;;;5051268;28;20213;-59
2021/10/26 07:50:20;;;;;;;10.33;7.57;;;14.00;99.90;;;;;;5051463;28;20205;-59
2021/10/26 07:52:46;;;;;;;8.67;7.30;;;13.90;99.90;;;;;;5051296;28;20229;-59
2021/10/26 07:55:14;;;;;;;8.10;7.27;;;13.90;99.90;;;;;;5051163;28;20213;-59
2021/10/26 07:57:41;;;;;;;8.07;6.90;;;13.90;99.90;;;;;;5051462;28;20206;-60
2021/10/26 08:00:09;;;;;;;9.33;6.80;;;13.90;99.90;;;;;;5051126;28;20579;-59
2021/10/26 08:02:36;;;;;;;9.40;7.30;;;13.90;99.90;;;;;;5051299;28;20226;-59
2021/10/26 08:05:03;;;;;;;8.27;7.30;;;13.90;99.90;;;;;;5051353;28;20202;-59
2021/10/26 08:07:30;;;;;;;8.63;7.40;;;13.90;99.90;;;;;;5051124;28;20205;-59
2021/10/26 08:09:57;;;;;;;7.67;6.83;;;13.90;99.90;;;;;;5050875;28;20696;-58
2021/10/26 08:12:27;;;;;;;9.27;7.00;;;14.00;99.90;;;;;;5051227;28;20233;-61
2021/10/26 08:14:54;;;;;;;7.77;6.60;;;14.10;99.90;;;;;;5051230;28;20198;-59
2021/10/26 08:17:21;;;;;;;8.37;6.40;;;14.20;99.90;;;;;;5051704;28;20583;-60
2021/10/26 08:19:49;;;;;;;9.97;7.83;;;14.30;99.90;;;;;;5051438;28;20209;-59
2021/10/26 08:22:18;;;;;;;11.57;7.93;;;14.30;99.90;;;;;;5051162;28;20225;-58
2021/10/26 08:24:45;;;;;;;25.13;19.30;;;14.20;99.90;;;;;;5051348;28;20205;-59
2021/10/26 08:27:14;;;;;;;8.90;7.20;;;14.20;99.90;;;;;;5050674;28;20664;-59
2021/10/26 08:29:51;;;;;;;7.87;7.07;;;14.20;99.90;;;;;;5051404;28;20205;-59
2021/10/26 08:32:46;;;;;;;13.03;9.57;;;14.10;99.90;;;;;;5051549;28;20221;-58
2021/10/26 08:35:28;;;;;;;8.97;7.07;;;13.90;99.90;;;;;;5051364;28;20209;-59
2021/10/26 08:37:59;;;;;;;11.47;9.70;;;14.00;99.90;;;;;;5051302;28;20634;-59
2021/10/26 08:40:27;;;;;;;8.20;7.17;;;14.20;99.90;;;;;;5051026;28;20237;-59
2021/10/26 08:42:57;;;;;;;9.50;7.03;;;14.50;99.90;;;;;;5050614;28;20237;-59
2021/10/26 08:45:26;;;;;;;8.80;7.13;;;14.80;99.90;;;;;;5050854;28;20214;-59
2021/10/26 08:47:54;;;;;;;8.83;6.43;;;15.10;99.90;;;;;;5051045;28;20648;-59
2021/10/26 08:50:21;;;;;;;8.63;5.80;;;15.40;99.90;;;;;;5050873;28;20680;-59
2021/10/26 08:52:49;;;;;;;8.03;6.80;;;15.60;99.90;;;;;;5050973;28;20229;-59
2021/10/26 08:55:17;;;;;;;6.87;5.17;;;15.60;99.90;;;;;;5050842;28;20205;-59
2021/10/26 08:57:45;;;;;;;6.00;4.20;;;15.80;99.90;;;;;;5051014;28;20205;-59
2021/10/26 09:00:16;;;;;;;5.80;3.97;;;16.00;99.90;;;;;;5051357;28;20205;-60
2021/10/26 09:02:47;;;;;;;4.73;3.90;;;16.40;99.90;;;;;;5051261;28;20229;-59
2021/10/26 09:05:16;;;;;;;4.97;3.40;;;16.50;99.90;;;;;;5051102;28;20276;-59
2021/10/26 09:07:59;;;;;;;4.83;3.33;;;16.50;99.90;;;;;;5050830;28;20206;-59
2021/10/26 09:10:29;;;;;;;7.47;3.30;;;16.40;99.90;;;;;;5051095;28;20205;-60
2021/10/26 09:18:34;;;;;;;5.63;3.23;;;15.90;99.90;;;;;;5050765;28;20205;-59
2021/10/26 09:21:02;;;;;;;6.87;2.90;;;15.80;99.90;;;;;;5050680;28;20225;-59
2021/10/26 09:23:29;;;;;;;4.33;2.77;;;15.80;99.90;;;;;;5050488;28;20225;-59
2021/10/26 09:26:00;;;;;;;5.63;2.60;;;15.70;99.90;;;;;;5050685;28;20205;-59
2021/10/26 09:28:28;;;;;;;4.43;2.93;;;16.00;99.90;;;;;;5050429;28;20213;-59
2021/10/26 09:31:00;;;;;;;3.77;2.77;;;16.10;99.90;;;;;;5050333;28;20210;-59
2021/10/26 09:33:32;;;;;;;4.77;2.97;;;16.30;99.90;;;;;;5050633;28;20264;-59
2021/10/26 09:36:25;;;;;;;5.43;2.80;;;16.40;99.90;;;;;;5050691;28;20206;-59
2021/10/26 09:39:10;;;;;;;5.70;2.90;;;16.50;99.90;;;;;;5052960;28;20206;-59
2021/10/26 09:41:38;;;;;;;4.73;2.53;;;16.70;99.90;;;;;;5054653;28;20282;-59
2021/10/26 09:44:12;;;;;;;6.07;2.70;;;16.90;99.90;;;;;;5053964;28;20225;-58
2021/10/26 09:46:49;;;;;;;5.30;2.40;;;17.10;99.90;;;;;;5054155;28;20205;-58
2021/10/26 09:49:23;;;;;;;4.95;2.50;;;17.30;99.90;;;;;;5053937;28;20213;-59
2021/10/26 09:51:53;;;;;;;5.03;2.65;;;17.60;99.90;;;;;;5054202;28;20205;-59
2021/10/26 09:54:20;;;;;;;9.20;2.40;;;17.90;99.90;;;;;;5053781;28;20727;-59
2021/10/26 09:57:02;;;;;;;3.78;2.13;;;17.90;99.90;;;;;;5054005;28;20232;-59
2021/10/26 09:59:29;;;;;;;4.00;2.20;;;17.60;99.90;;;;;;5053373;28;20712;-59
2021/10/26 10:01:57;;;;;;;4.35;2.30;;;17.40;99.90;;;;;;5053911;28;20495;-59
2021/10/26 10:04:28;;;;;;;7.20;3.20;;;17.30;99.90;;;;;;5053542;28;20690;-59
2021/10/26 10:06:56;;;;;;;3.75;2.00;;;17.50;99.90;;;;;;5053775;28;20240;-59
2021/10/26 10:09:24;;;;;;;5.55;2.40;;;17.40;99.90;;;;;;5053626;28;20205;-59
2021/10/26 10:12:05;;;;;;;3.37;2.10;;;17.40;99.90;;;;;;5054081;28;20681;-59
2021/10/26 10:14:34;;;;;;;3.83;2.40;;;17.40;99.90;;;;;;5053979;28;20245;-59
2021/10/26 10:17:03;;;;;;;3.50;2.35;;;17.40;99.90;;;;;;5053829;28;20684;-59
2021/10/26 10:19:30;;;;;;;6.97;2.78;;;17.70;99.90;;;;;;5054434;28;20209;-59
2021/10/26 10:21:58;;;;;;;4.53;2.50;;;17.80;99.90;;;;;;5054063;28;20237;-59
2021/10/26 10:24:28;;;;;;;5.80;2.33;;;17.90;99.90;;;;;;5053374;28;20234;-59
2021/10/26 10:26:55;;;;;;;6.40;3.30;;;18.10;99.90;;;;;;5054053;28;20288;-59
2021/10/26 10:29:22;;;;;;;4.05;2.85;;;18.40;99.90;;;;;;5052653;28;20665;-60
2021/10/26 10:31:50;;;;;;;4.53;2.78;;;18.80;99.90;;;;;;5053018;28;20201;-60
2021/10/26 10:34:22;;;;;;;5.32;2.83;;;19.20;99.90;;;;;;5052870;28;20272;-60
2021/10/26 10:36:52;;;;;;;4.45;3.10;;;19.60;99.90;;;;;;5052806;28;20708;-60
2021/10/26 10:39:27;;;;;;;4.20;2.97;;;19.90;99.90;;;;;;5052869;28;20606;-60
2021/10/26 10:42:10;;;;;;;4.85;2.10;;;20.30;99.90;;;;;;5053121;28;20224;-61
2021/10/26 10:44:39;;;;;;;8.90;3.33;;;20.60;99.90;;;;;;5052537;28;20209;-61
2021/10/26 10:47:10;;;;;;;5.53;3.00;;;20.60;99.90;;;;;;5053189;28;20289;-60
2021/10/26 10:49:48;;;;;;;3.88;1.95;;;20.60;99.90;;;;;;5052628;28;20215;-60
2021/10/26 10:52:20;;;;;;;5.45;3.20;;;20.40;99.90;;;;;;5053103;28;20214;-61
2021/10/26 10:54:51;;;;;;;4.68;3.10;;;20.20;99.90;;;;;;5052895;28;20205;-60
2021/10/26 10:57:20;;;;;;;5.30;3.60;;;20.00;99.90;;;;;;5052827;28;20209;-60
2021/10/26 10:59:48;;;;;;;5.13;3.72;;;19.90;99.90;;;;;;5052547;28;20255;-61
2021/10/26 11:02:26;;;;;;;5.60;3.40;;;19.60;99.90;;;;;;5052498;28;20678;-60
2021/10/26 11:04:55;;;;;;;7.15;3.50;;;19.20;99.90;;;;;;5053168;28;20205;-62
2021/10/26 11:07:54;;;;;;;14.60;5.45;;;19.00;99.90;;;;;;5053587;28;20268;-60
2021/10/26 11:10:22;;;;;;;10.05;4.60;;;19.10;99.90;;;;;;5050707;28;20582;-60
2021/10/26 11:12:51;;;;;;;13.73;5.00;;;19.30;99.90;;;;;;5053209;28;20250;-61
2021/10/26 11:15:25;;;;;;;8.95;5.18;;;19.60;99.90;;;;;;5052908;28;20214;-61
2021/10/26 11:17:54;;;;;;;7.13;4.30;;;19.70;99.90;;;;;;5053140;28;20209;-61
2021/10/26 11:20:42;;;;;;;5.45;3.10;;;19.90;99.90;;;;;;5052743;28;20289;-60
2021/10/26 11:23:14;;;;;;;5.07;3.45;;;20.10;99.90;;;;;;5051624;28;20229;-60
2021/10/26 11:25:45;;;;;;;6.60;2.92;;;20.40;99.90;;;;;;5051948;28;20224;-61
2021/10/26 11:28:39;;;;;;;5.55;3.20;;;20.50;99.90;;;;;;5051632;28;20665;-60
2021/10/26 11:31:08;;;;;;;6.00;3.20;;;20.60;99.90;;;;;;5051545;28;20678;-61
2021/10/26 11:33:37;;;;;;;5.20;2.65;;;20.50;99.90;;;;;;5051381;28;20233;-60
2021/10/26 11:36:06;;;;;;;6.03;3.03;;;20.40;99.90;;;;;;5051987;28;20216;-60
2021/10/26 11:38:34;;;;;;;6.15;3.50;;;20.30;99.90;;;;;;5051663;28;20209;-61
2021/10/26 11:41:04;;;;;;;7.35;3.58;;;20.50;99.90;;;;;;5051727;28;20210;-62
2021/10/26 11:43:38;;;;;;;6.00;3.78;;;20.70;99.90;;;;;;5050906;28;20236;-59
2021/10/26 11:46:05;;;;;;;7.90;3.60;;;20.50;99.90;;;;;;5051400;28;20697;-58
2021/10/26 11:48:39;;;;;;;5.68;3.38;;;20.40;99.90;;;;;;5051139;28;20212;-59
2021/10/26 11:51:23;;;;;;;5.35;3.45;;;20.20;99.90;;;;;;5051660;28;20628;-61
2021/10/26 11:53:52;;;;;;;9.65;4.25;;;20.30;99.90;;;;;;5052083;28;20230;-61
2021/10/26 11:56:23;;;;;;;7.13;3.97;;;20.10;99.90;;;;;;5052402;28;20213;-60
2021/10/26 11:58:55;;;;;;;6.85;3.50;;;19.80;99.90;;;;;;5051513;28;20733;-60
2021/10/26 12:01:23;;;;;;;8.65;4.15;;;19.70;99.90;;;;;;5051013;28;20206;-59
2021/10/26 12:03:50;;;;;;;6.57;4.10;;;19.60;99.90;;;;;;5051464;28;20267;-60
2021/10/26 12:06:29;;;;;;;9.52;4.07;;;19.60;99.90;;;;;;5051576;28;20198;-60
2021/10/26 12:08:59;;;;;;;6.47;3.60;;;19.40;99.90;;;;;;5053338;28;20216;-60
2021/10/26 12:11:34;;;;;;;6.88;4.18;;;19.20;99.90;;;;;;5053771;28;20212;-62
2021/10/26 12:14:38;;;;;;;6.50;3.88;;;19.10;99.90;;;;;;5051915;28;20222;-60
2021/10/26 12:17:20;;;;;;;7.45;4.45;;;18.90;99.90;;;;;;5041619;28;20205;-60
2021/10/26 12:19:53;;;;;;;8.13;4.47;;;18.90;99.90;;;;;;5052056;28;20237;-60
2021/10/26 12:22:26;;;;;;;5.72;3.78;;;18.90;99.90;;;;;;5051694;28;20232;-59
2021/10/26 12:24:58;;;;;;;6.45;3.97;;;18.90;99.90;;;;;;5050970;28;20208;-62
2021/10/26 12:27:30;;;;;;;6.13;4.07;;;18.90;99.90;;;;;;5051303;28;20212;-60
2021/10/26 12:30:07;;;;;;;7.10;4.00;;;18.90;99.90;;;;;;5051370;28;20202;-61
2021/10/26 12:32:34;;;;;;;8.45;4.80;;;18.80;99.90;;;;;;5073683;22;20651;-56
2021/10/26 12:35:01;;;;;;;7.80;4.32;;;18.80;99.90;;;;;;5010943;28;20207;-56
2021/10/26 12:37:32;;;;;;;6.00;4.57;;;18.80;99.90;;;;;;5010915;28;20207;-56
2021/10/26 12:40:02;;;;;;;8.05;4.20;;;18.90;99.90;;;;;;5010774;28;20218;-57
2021/10/26 12:42:35;;;;;;;7.18;3.92;;;19.00;99.90;;;;;;5010738;28;20273;-57
2021/10/26 12:45:04;;;;;;;9.18;5.32;;;19.10;99.90;;;;;;5010708;28;20701;-56
2021/10/26 12:47:34;;;;;;;6.07;4.20;;;19.10;99.90;;;;;;5010627;28;20693;-55
2021/10/26 12:50:02;;;;;;;8.02;4.20;;;19.10;99.90;;;;;;5010541;28;20322;-54
2021/10/26 12:52:28;;;;;;;9.85;4.22;;;19.20;99.90;;;;;;5010539;28;20230;-56
2021/10/26 12:54:56;;;;;;;10.10;4.00;;;19.50;99.90;;;;;;5010773;28;20698;-55
2021/10/26 12:57:37;;;;;;;3.97;3.28;;;19.70;99.90;;;;;;5010482;28;20893;-54
2021/10/26 13:00:24;;;;;;;5.50;3.60;;;19.50;99.90;;;;;;5010671;28;20207;-55